createdAt,value
2017-10-25T00:02:06.602Z,96945.56
2017-10-25T00:04:34.147Z,96940.80
2017-10-25T00:07:01.700Z,96939.42
2017-10-25T00:09:29.285Z,96937.22
2017-10-25T00:11:56.828Z,96939.33
2017-10-25T00:14:26.180Z,96936.27
2017-10-25T00:16:53.748Z,96941.06
2017-10-25T00:19:21.281Z,96935.33
2017-10-25T00:21:48.833Z,96938.21
2017-10-25T00:24:16.386Z,96937.21
2017-10-25T00:26:43.937Z,96936.30
2017-10-25T00:29:11.546Z,96935.38
2017-10-25T00:31:39.094Z,96935.92
2017-10-25T00:34:06.723Z,96936.20
2017-10-25T00:36:34.290Z,96932.78
2017-10-25T00:39:01.836Z,96936.66
2017-10-25T00:41:29.384Z,96942.22
2017-10-25T00:43:56.955Z,96926.91
2017-10-25T00:46:24.496Z,96930.56
2017-10-25T00:48:52.041Z,96955.22
2017-10-25T00:51:19.664Z,96948.44
2017-10-25T00:53:47.211Z,96957.50
2017-10-25T00:56:14.801Z,96969.03
2017-10-25T00:58:42.379Z,96969.98
2017-10-25T01:01:09.925Z,96968.48
2017-10-25T01:03:37.451Z,96975.87
2017-10-25T01:06:05.019Z,96979.09
2017-10-25T01:08:32.570Z,96978.73
2017-10-25T01:11:00.101Z,96976.96
2017-10-25T01:13:27.724Z,96975.11
2017-10-25T01:15:55.316Z,96974.91
2017-10-25T01:18:23.006Z,96978.45
2017-10-25T01:20:50.557Z,96979.72
2017-10-25T01:23:18.091Z,96979.67
2017-10-25T01:25:45.642Z,96982.63
2017-10-25T01:28:13.324Z,96973.78
2017-10-25T01:30:40.871Z,96978.28
2017-10-25T01:33:08.537Z,96973.58
2017-10-25T01:35:36.128Z,96970.13
2017-10-25T01:38:03.728Z,96970.29
2017-10-25T01:40:31.332Z,96973.06
2017-10-25T01:42:58.880Z,96962.22
2017-10-25T01:45:26.502Z,96967.59
2017-10-25T01:47:54.083Z,96956.94
2017-10-25T01:50:21.625Z,96953.20
2017-10-25T01:52:49.201Z,96954.77
2017-10-25T01:55:16.864Z,96947.79
2017-10-25T01:57:44.410Z,96945.27
2017-10-25T02:00:11.978Z,96945.37
2017-10-25T02:02:39.664Z,96935.55
2017-10-25T02:05:07.683Z,96945.88
2017-10-25T02:07:35.578Z,96934.30
2017-10-25T02:10:03.491Z,96937.45
2017-10-25T02:12:31.033Z,96936.32
2017-10-25T02:14:58.609Z,96930.20
2017-10-25T02:17:26.135Z,96920.88
2017-10-25T02:19:53.677Z,96927.02
2017-10-25T02:22:21.371Z,96921.13
2017-10-25T02:24:48.925Z,96921.41
2017-10-25T02:27:16.507Z,96922.31
2017-10-25T02:32:17.890Z,96920.73
2017-10-25T02:34:45.433Z,96920.27
2017-10-25T02:37:13.029Z,96919.86
2017-10-25T02:39:40.569Z,96914.58
2017-10-25T02:42:08.116Z,96912.98
2017-10-25T02:44:35.920Z,96904.52
2017-10-25T02:47:03.481Z,96897.63
2017-10-25T02:49:31.006Z,96883.79
2017-10-25T02:51:58.655Z,96875.43
2017-10-25T02:54:26.365Z,96867.81
2017-10-25T02:56:54.362Z,96869.92
2017-10-25T02:59:21.978Z,96862.79
2017-10-25T03:01:49.527Z,96859.13
2017-10-25T03:04:17.070Z,96856.88
2017-10-25T03:06:44.623Z,96851.25
2017-10-25T03:09:12.194Z,96851.11
2017-10-25T03:11:39.751Z,96847.17
2017-10-25T03:14:07.276Z,96850.84
2017-10-25T03:16:34.848Z,96846.59
2017-10-25T03:19:02.384Z,96842.44
2017-10-25T03:21:29.956Z,96846.16
2017-10-25T03:23:57.537Z,96843.80
2017-10-25T03:26:25.068Z,96849.74
2017-10-25T03:28:52.617Z,96857.08
2017-10-25T03:31:20.199Z,96854.49
2017-10-25T03:33:47.741Z,96848.08
2017-10-25T03:36:15.321Z,96845.73
2017-10-25T03:38:42.889Z,96854.63
2017-10-25T03:41:10.570Z,96854.08
2017-10-25T03:43:38.139Z,96851.02
2017-10-25T03:46:05.685Z,96847.73
2017-10-25T03:48:33.249Z,96852.50
2017-10-25T03:51:00.776Z,96850.20
2017-10-25T03:53:28.334Z,96850.20
2017-10-25T03:55:55.870Z,96851.65
2017-10-25T03:58:23.433Z,96846.41
2017-10-25T04:00:51.042Z,96852.44
2017-10-25T04:03:18.568Z,96850.59
2017-10-25T04:05:46.113Z,96852.36
2017-10-25T04:08:13.708Z,96850.58
2017-10-25T04:10:42.122Z,96848.56
2017-10-25T04:13:09.733Z,96846.45
2017-10-25T04:15:37.255Z,96845.98
2017-10-25T04:18:05.085Z,96830.53
2017-10-25T04:20:32.657Z,96839.43
2017-10-25T04:23:00.222Z,96837.32
2017-10-25T04:25:27.806Z,96835.30
2017-10-25T04:27:55.337Z,96827.63
2017-10-25T04:30:22.884Z,96816.90
2017-10-25T04:32:50.436Z,96820.59
2017-10-25T04:35:17.976Z,96818.48
2017-10-25T04:37:45.550Z,96812.92
2017-10-25T04:40:13.125Z,96813.07
2017-10-25T04:42:40.699Z,96805.31
2017-10-25T04:45:08.271Z,96807.34
2017-10-25T04:47:35.960Z,96806.23
2017-10-25T04:50:03.502Z,96806.16
2017-10-25T04:52:31.038Z,96809.07
2017-10-25T04:54:58.583Z,96802.15
2017-10-25T04:57:26.155Z,96810.97
2017-10-25T04:59:53.710Z,96808.29
2017-10-25T05:02:21.251Z,96804.27
2017-10-25T05:04:48.780Z,96815.42
2017-10-25T05:07:16.331Z,96810.62
2017-10-25T05:09:43.888Z,96823.60
2017-10-25T05:12:11.410Z,96816.21
2017-10-25T05:14:38.956Z,96817.17
2017-10-25T05:17:06.557Z,96815.52
2017-10-25T05:19:34.091Z,96815.42
2017-10-25T05:22:01.639Z,96808.72
2017-10-25T05:24:29.524Z,96809.83
2017-10-25T05:26:57.064Z,96805.80
2017-10-25T05:29:24.648Z,96801.46
2017-10-25T05:31:52.193Z,96806.86
2017-10-25T05:34:19.741Z,96806.25
2017-10-25T05:36:47.280Z,96812.98
2017-10-25T05:39:14.882Z,96816.18
2017-10-25T05:41:42.438Z,96817.84
2017-10-25T05:44:10.006Z,96812.61
2017-10-25T05:46:37.577Z,96818.90
2017-10-25T05:49:05.116Z,96827.17
2017-10-25T05:51:32.662Z,96826.89
2017-10-25T05:54:00.209Z,96829.19
2017-10-25T05:56:27.739Z,96829.34
2017-10-25T05:58:55.270Z,96829.51
2017-10-25T06:01:22.862Z,96833.09
2017-10-25T06:03:50.392Z,96836.89
2017-10-25T06:06:17.933Z,96839.35
2017-10-25T06:08:45.480Z,96829.16
2017-10-25T06:11:13.077Z,96830.66
2017-10-25T06:13:40.674Z,96832.59
2017-10-25T06:16:08.812Z,96839.39
2017-10-25T06:18:36.407Z,96843.35
2017-10-25T06:21:03.941Z,96843.77
2017-10-25T06:23:31.481Z,96851.82
2017-10-25T06:25:59.076Z,96858.52
2017-10-25T06:28:26.622Z,96857.98
2017-10-25T06:30:54.150Z,96857.57
2017-10-25T06:33:21.689Z,96865.64
2017-10-25T06:35:49.239Z,96865.45
2017-10-25T06:38:16.957Z,96860.23
2017-10-25T06:40:44.514Z,96858.28
2017-10-25T06:43:12.081Z,96864.39
2017-10-25T06:45:39.622Z,96863.71
2017-10-25T06:48:07.150Z,96863.22
2017-10-25T06:50:34.755Z,96867.55
2017-10-25T06:53:02.321Z,96875.17
2017-10-25T06:55:29.858Z,96878.02
2017-10-25T06:57:57.522Z,96879.52
2017-10-25T07:00:25.065Z,96884.58
2017-10-25T07:02:52.626Z,96894.52
2017-10-25T07:05:20.261Z,96889.05
2017-10-25T07:07:47.835Z,96894.14
2017-10-25T07:10:15.434Z,96903.39
2017-10-25T07:12:42.977Z,96897.16
2017-10-25T07:15:10.582Z,96898.23
2017-10-25T07:17:38.125Z,96899.78
2017-10-25T07:20:05.678Z,96893.39
2017-10-25T07:22:33.217Z,96896.13
2017-10-25T07:25:00.743Z,96892.57
2017-10-25T07:27:28.358Z,96887.20
2017-10-25T07:29:55.904Z,96891.73
2017-10-25T07:32:23.427Z,96888.66
2017-10-25T07:34:50.991Z,96885.74
2017-10-25T07:37:18.529Z,96885.91
2017-10-25T07:39:46.062Z,96874.16
2017-10-25T07:42:13.635Z,96876.73
2017-10-25T07:44:41.219Z,96883.87
2017-10-25T07:47:08.748Z,96881.86
2017-10-25T07:49:36.287Z,96879.82
2017-10-25T07:52:03.866Z,96883.37
2017-10-25T07:54:31.401Z,96878.86
2017-10-25T07:56:58.953Z,96882.90
2017-10-25T07:59:26.520Z,96879.74
2017-10-25T08:01:54.059Z,96875.06
2017-10-25T08:04:21.626Z,96871.93
2017-10-25T08:06:49.166Z,96878.52
2017-10-25T08:09:16.694Z,96872.11
2017-10-25T08:11:44.351Z,96879.89
2017-10-25T08:14:11.898Z,96872.81
2017-10-25T08:16:39.425Z,96878.56
2017-10-25T08:19:07.003Z,96874.87
2017-10-25T08:21:34.551Z,96875.00
2017-10-25T08:24:02.098Z,96878.62
2017-10-25T08:26:29.681Z,96873.50
2017-10-25T08:28:57.224Z,96873.52
2017-10-25T08:31:24.776Z,96875.84
2017-10-25T08:33:52.343Z,96879.89
2017-10-25T08:36:19.906Z,96882.35
2017-10-25T08:38:47.531Z,96873.75
2017-10-25T08:41:15.124Z,96870.46
2017-10-25T08:43:42.804Z,96876.97
2017-10-25T08:46:10.300Z,96878.30
2017-10-25T08:48:37.859Z,96881.92
2017-10-25T08:51:05.446Z,96877.08
2017-10-25T08:53:33.015Z,96880.20
2017-10-25T08:56:00.566Z,96882.58
2017-10-25T08:58:28.106Z,96890.21
2017-10-25T09:00:55.703Z,96883.13
2017-10-25T09:03:23.471Z,96890.78
2017-10-25T09:05:51.048Z,96886.48
2017-10-25T09:08:18.663Z,96887.72
2017-10-25T09:10:46.190Z,96879.73
2017-10-25T09:13:13.727Z,96880.98
2017-10-25T09:15:41.288Z,96880.59
2017-10-25T09:18:08.822Z,96875.58
2017-10-25T09:20:36.345Z,96883.84
2017-10-25T09:23:04.005Z,96881.59
2017-10-25T09:25:31.607Z,96880.77
2017-10-25T09:27:59.182Z,96881.00
2017-10-25T09:30:26.796Z,96884.22
2017-10-25T09:32:54.381Z,96885.23
2017-10-25T09:35:22.216Z,96883.16
2017-10-25T09:37:49.776Z,96875.53
2017-10-25T09:40:17.332Z,96880.43
2017-10-25T09:42:44.878Z,96884.47
2017-10-25T09:45:12.415Z,96876.47
2017-10-25T09:47:39.979Z,96883.46
2017-10-25T09:50:07.516Z,96881.50
2017-10-25T09:52:35.073Z,96874.96
2017-10-25T09:55:02.657Z,96869.95
2017-10-25T09:57:30.209Z,96862.93
2017-10-25T09:59:57.770Z,96872.31
2017-10-25T10:02:25.345Z,96864.19
2017-10-25T10:04:52.925Z,96867.39
2017-10-25T10:07:20.483Z,96867.87
2017-10-25T10:09:48.069Z,96871.49
2017-10-25T10:12:15.641Z,96868.49
2017-10-25T10:14:43.177Z,96871.98
2017-10-25T10:17:11.223Z,96871.20
2017-10-25T10:19:39.206Z,96866.98
2017-10-25T10:22:06.772Z,96866.79
2017-10-25T10:24:34.781Z,96866.86
2017-10-25T10:27:02.326Z,96868.39
2017-10-25T10:29:29.900Z,96857.94
2017-10-25T10:31:57.447Z,96851.31
2017-10-25T10:34:24.981Z,96851.59
2017-10-25T10:36:52.526Z,96851.97
2017-10-25T10:39:20.084Z,96854.70
2017-10-25T10:41:47.625Z,96849.68
2017-10-25T10:44:15.191Z,96856.29
2017-10-25T10:46:42.755Z,96844.22
2017-10-25T10:49:11.927Z,96842.92
2017-10-25T10:51:39.631Z,96838.05
2017-10-25T10:54:07.172Z,96825.38
2017-10-25T10:56:34.804Z,96837.30
2017-10-25T10:59:02.398Z,96830.87
2017-10-25T11:01:29.949Z,96830.36
2017-10-25T11:03:57.481Z,96834.08
2017-10-25T11:06:25.516Z,96831.75
2017-10-25T11:08:53.070Z,96824.33
2017-10-25T11:11:20.672Z,96826.80
2017-10-25T11:13:48.264Z,96817.88
2017-10-25T11:16:15.804Z,96811.22
2017-10-25T11:18:43.348Z,96807.30
2017-10-25T11:21:11.114Z,96802.00
2017-10-25T11:23:38.708Z,96799.82
2017-10-25T11:26:06.264Z,96804.66
2017-10-25T11:28:33.819Z,96803.11
2017-10-25T11:31:01.384Z,96801.25
2017-10-25T11:33:28.944Z,96812.60
2017-10-25T11:35:56.524Z,96798.08
2017-10-25T11:38:24.092Z,96805.55
2017-10-25T11:40:51.669Z,96793.67
2017-10-25T11:43:19.245Z,96781.40
2017-10-25T11:45:46.814Z,96781.62
2017-10-25T11:48:14.393Z,96778.44
2017-10-25T11:50:41.957Z,96778.55
2017-10-25T11:53:09.727Z,96777.69
2017-10-25T11:55:37.574Z,96776.56
2017-10-25T11:58:05.118Z,96768.67
2017-10-25T12:00:32.684Z,96767.86
2017-10-25T12:03:00.239Z,96761.13
2017-10-25T12:05:27.789Z,96773.78
2017-10-25T12:07:55.373Z,96767.19
2017-10-25T12:10:22.905Z,96762.22
2017-10-25T12:12:50.446Z,96767.02
2017-10-25T12:15:18.032Z,96762.89
2017-10-25T12:17:45.605Z,96762.68
2017-10-25T12:20:13.153Z,96757.05
2017-10-25T12:22:40.708Z,96757.42
2017-10-25T12:25:08.287Z,96754.83
2017-10-25T12:27:35.841Z,96765.12
2017-10-25T12:30:03.417Z,96768.41
2017-10-25T12:32:31.000Z,96764.67
2017-10-25T12:34:58.545Z,96765.70
2017-10-25T12:37:26.093Z,96767.91
2017-10-25T12:39:53.642Z,96768.67
2017-10-25T12:42:21.391Z,96766.01
2017-10-25T12:44:48.927Z,96759.71
2017-10-25T12:47:17.624Z,96761.83
2017-10-25T12:49:45.215Z,96760.02
2017-10-25T12:52:12.753Z,96752.89
2017-10-25T12:54:41.208Z,96745.91
2017-10-25T12:57:08.878Z,96753.63
2017-10-25T12:59:36.439Z,96753.59
2017-10-25T13:02:03.999Z,96743.41
2017-10-25T13:04:31.566Z,96745.38
2017-10-25T13:06:59.121Z,96742.21
2017-10-25T13:09:27.128Z,96747.20
2017-10-25T13:15:23.466Z,96739.13
2017-10-25T13:17:58.231Z,96737.00
2017-10-25T13:20:25.846Z,96742.92
2017-10-25T13:22:53.399Z,96736.36
2017-10-25T13:25:20.993Z,96730.06
2017-10-25T13:27:48.515Z,96722.66
2017-10-25T13:30:16.038Z,96720.66
2017-10-25T13:32:43.598Z,96723.34
2017-10-25T13:35:11.161Z,96722.70
2017-10-25T13:37:38.725Z,96724.84
2017-10-25T13:40:06.316Z,96730.30
2017-10-25T13:42:33.858Z,96724.20
2017-10-25T13:45:01.426Z,96716.15
2017-10-25T13:47:29.128Z,96716.77
2017-10-25T13:49:56.684Z,96713.09
2017-10-25T13:52:24.233Z,96714.30
2017-10-25T13:54:51.797Z,96708.73
2017-10-25T13:57:19.336Z,96704.50
2017-10-25T13:59:46.890Z,96702.85
2017-10-25T14:02:14.471Z,96687.98
2017-10-25T14:04:42.577Z,96686.43
2017-10-25T14:07:10.136Z,96691.08
2017-10-25T14:09:37.703Z,96696.30
2017-10-25T14:12:05.747Z,96703.96
2017-10-25T14:14:33.668Z,96708.86
2017-10-25T14:17:01.305Z,96716.46
2017-10-25T14:19:28.910Z,96712.09
2017-10-25T14:21:56.446Z,96719.56
2017-10-25T14:24:23.988Z,96722.92
2017-10-25T14:27:05.897Z,96720.48
2017-10-25T14:29:33.484Z,96724.05
2017-10-25T14:32:01.041Z,96711.66
2017-10-25T14:34:28.622Z,96721.73
2017-10-25T14:36:56.161Z,96704.17
2017-10-25T14:39:23.726Z,96716.77
2017-10-25T14:41:51.336Z,96717.16
2017-10-25T14:44:18.900Z,96714.39
2017-10-25T14:46:46.426Z,96712.19
2017-10-25T14:49:14.013Z,96721.83
2017-10-25T14:51:41.560Z,96722.77
2017-10-25T14:54:09.134Z,96712.05
2017-10-25T14:56:36.702Z,96715.20
2017-10-25T14:59:04.241Z,96713.82
2017-10-25T15:01:31.800Z,96719.44
2017-10-25T15:03:59.363Z,96705.05
2017-10-25T15:06:26.896Z,96713.89
2017-10-25T15:08:54.438Z,96703.12
2017-10-25T15:11:22.009Z,96705.77
2017-10-25T15:13:49.555Z,96706.66
2017-10-25T15:16:17.093Z,96710.27
2017-10-25T15:18:44.724Z,96710.35
2017-10-25T15:21:12.330Z,96710.02
2017-10-25T15:23:39.873Z,96710.48
2017-10-25T15:26:07.434Z,96714.98
2017-10-25T15:28:34.979Z,96718.42
2017-10-25T15:31:02.577Z,96713.61
2017-10-25T15:33:30.249Z,96713.75
2017-10-25T15:35:57.780Z,96703.52
2017-10-25T15:38:25.343Z,96695.30
2017-10-25T15:40:52.913Z,96696.97
2017-10-25T15:43:20.458Z,96698.53
2017-10-25T15:45:48.014Z,96699.83
2017-10-25T15:48:15.603Z,96710.07
2017-10-25T15:50:43.152Z,96712.19
2017-10-25T15:53:10.871Z,96712.18
2017-10-25T15:55:38.440Z,96709.50
2017-10-25T15:58:05.982Z,96709.27
2017-10-25T16:00:33.518Z,96712.47
2017-10-25T16:03:01.077Z,96702.53
2017-10-25T16:05:28.641Z,96712.56
2017-10-25T16:07:56.187Z,96710.30
2017-10-25T16:10:23.767Z,96707.59
2017-10-25T16:12:51.295Z,96712.24
2017-10-25T16:15:18.837Z,96714.93
2017-10-25T16:17:46.416Z,96711.65
2017-10-25T16:20:14.053Z,96719.23
2017-10-25T16:22:41.597Z,96722.10
2017-10-25T16:25:09.450Z,96718.95
2017-10-25T16:27:37.012Z,96723.63
2017-10-25T16:30:04.558Z,96729.91
2017-10-25T16:32:32.106Z,96724.48
2017-10-25T16:34:59.672Z,96718.64
2017-10-25T16:37:27.238Z,96721.30
2017-10-25T16:39:54.820Z,96721.74
2017-10-25T16:42:22.358Z,96725.11
2017-10-25T16:44:49.926Z,96715.39
2017-10-25T16:47:17.492Z,96714.47
2017-10-25T16:49:45.045Z,96709.59
2017-10-25T16:52:12.635Z,96713.52
2017-10-25T16:54:40.206Z,96720.67
2017-10-25T16:57:07.807Z,96724.74
2017-10-25T16:59:35.469Z,96722.69
2017-10-25T17:02:03.009Z,96726.37
2017-10-25T17:04:30.553Z,96730.41
2017-10-25T17:06:58.262Z,96730.47
2017-10-25T17:09:25.807Z,96738.18
2017-10-25T17:11:54.204Z,96741.55
2017-10-25T17:14:21.964Z,96746.71
2017-10-25T17:16:49.557Z,96745.47
2017-10-25T17:19:17.177Z,96747.84
2017-10-25T17:21:44.829Z,96752.29
2017-10-25T17:24:12.447Z,96753.75
2017-10-25T17:26:40.005Z,96752.08
2017-10-25T17:29:09.266Z,96759.69
2017-10-25T17:31:36.890Z,96755.53
2017-10-25T17:34:04.538Z,96766.04
2017-10-25T17:36:32.100Z,96766.04
2017-10-25T17:38:59.992Z,96776.87
2017-10-25T17:41:27.556Z,96784.36
2017-10-25T17:43:55.115Z,96790.09
2017-10-25T17:46:22.968Z,96782.20
2017-10-25T17:48:50.512Z,96778.64
2017-10-25T17:51:18.067Z,96773.86
2017-10-25T17:53:45.617Z,96781.80
2017-10-25T17:56:13.165Z,96784.36
2017-10-25T17:58:40.775Z,96779.41
2017-10-25T18:01:08.324Z,96782.73
2017-10-25T18:03:35.859Z,96786.95
2017-10-25T18:06:03.458Z,96785.81
2017-10-25T18:08:31.011Z,96785.66
2017-10-25T18:10:58.588Z,96793.25
2017-10-25T18:13:26.148Z,96792.60
2017-10-25T18:15:53.685Z,96804.72
2017-10-25T18:18:21.225Z,96814.31
2017-10-25T18:20:48.778Z,96815.90
2017-10-25T18:23:16.367Z,96812.77
2017-10-25T18:25:44.182Z,96813.64
2017-10-25T18:28:11.750Z,96808.45
2017-10-25T18:30:39.286Z,96804.05
2017-10-25T18:33:06.839Z,96806.50
2017-10-25T18:35:34.410Z,96806.94
2017-10-25T18:38:02.323Z,96811.39
2017-10-25T18:40:29.969Z,96801.78
2017-10-25T18:42:57.545Z,96810.57
2017-10-25T18:45:25.121Z,96811.09
2017-10-25T18:47:52.672Z,96809.32
2017-10-25T18:50:20.231Z,96810.66
2017-10-25T18:52:47.770Z,96818.81
2017-10-25T18:55:15.350Z,96816.63
2017-10-25T18:57:42.925Z,96815.05
2017-10-25T19:00:10.485Z,96818.02
2017-10-25T19:02:38.034Z,96813.92
2017-10-25T19:05:06.126Z,96811.97
2017-10-25T19:07:33.667Z,96814.01
2017-10-25T19:10:01.209Z,96806.36
2017-10-25T19:12:28.769Z,96810.16
2017-10-25T19:14:56.300Z,96805.26
2017-10-25T19:17:23.888Z,96804.17
2017-10-25T19:19:51.458Z,96807.56
2017-10-25T19:22:18.991Z,96803.49
2017-10-25T19:24:46.527Z,96805.97
2017-10-25T19:27:14.165Z,96802.05
2017-10-25T19:29:41.709Z,96805.10
2017-10-25T19:32:09.308Z,96805.59
2017-10-25T19:34:36.836Z,96807.41
2017-10-25T19:37:04.455Z,96813.17
2017-10-25T19:39:32.025Z,96819.70
2017-10-25T19:41:59.556Z,96818.56
2017-10-25T19:44:27.149Z,96823.59
2017-10-25T19:46:54.752Z,96822.95
2017-10-25T19:49:22.301Z,96832.19
2017-10-25T19:51:49.817Z,96845.05
2017-10-25T19:54:17.369Z,96848.48
2017-10-25T19:56:44.891Z,96856.25
2017-10-25T19:59:12.473Z,96846.59
2017-10-25T20:01:40.228Z,96853.89
2017-10-25T20:04:07.840Z,96853.39
2017-10-25T20:06:35.383Z,96860.48
2017-10-25T20:09:03.125Z,96869.56
2017-10-25T20:11:30.715Z,96872.50
2017-10-25T20:13:58.281Z,96875.88
2017-10-25T20:16:26.012Z,96883.98
2017-10-25T20:18:53.562Z,96900.03
2017-10-25T20:21:21.133Z,96905.83
2017-10-25T20:23:48.835Z,96907.47
2017-10-25T20:26:16.372Z,96907.72
2017-10-25T20:28:43.908Z,96914.41
2017-10-25T20:31:12.100Z,96911.89
2017-10-25T20:33:39.696Z,96919.83
2017-10-25T20:36:07.320Z,96916.20
2017-10-25T20:38:34.994Z,96930.98
2017-10-25T20:41:02.515Z,96935.20
2017-10-25T20:43:30.623Z,96940.53
2017-10-25T20:45:58.185Z,96945.52
2017-10-25T20:48:25.699Z,96936.48
2017-10-25T20:50:53.243Z,96936.58
2017-10-25T20:53:20.806Z,96940.05
2017-10-25T20:55:48.350Z,96931.27
2017-10-25T20:58:16.244Z,96939.16
2017-10-25T21:00:43.758Z,96937.23
2017-10-25T21:03:11.546Z,96926.89
2017-10-25T21:05:39.087Z,96927.28
2017-10-25T21:08:06.714Z,96920.75
2017-10-25T21:10:34.238Z,96919.39
2017-10-25T21:13:01.813Z,96931.39
2017-10-25T21:15:29.353Z,96924.73
2017-10-25T21:17:56.890Z,96935.52
2017-10-25T21:20:24.430Z,96934.42
2017-10-25T21:22:51.963Z,96939.91
2017-10-25T21:25:19.482Z,96943.44
2017-10-25T21:27:47.118Z,96948.88
2017-10-25T21:30:14.662Z,96946.73
2017-10-25T21:32:42.179Z,96952.81
2017-10-25T21:35:09.799Z,96954.36
2017-10-25T21:37:37.321Z,96962.53
2017-10-25T21:40:04.886Z,96955.07
2017-10-25T21:42:32.454Z,96960.84
2017-10-25T21:44:59.977Z,96958.08
2017-10-25T21:47:27.664Z,96959.09
2017-10-25T21:49:55.324Z,96964.72
2017-10-25T21:52:22.878Z,96958.30
2017-10-25T21:54:50.409Z,96955.09
2017-10-25T21:57:17.957Z,96959.66
2017-10-25T21:59:45.496Z,96960.35
2017-10-25T22:02:13.089Z,96952.03
2017-10-25T22:04:41.257Z,96962.63
2017-10-25T22:07:09.214Z,96970.32
2017-10-25T22:09:36.757Z,96967.83
2017-10-25T22:12:05.153Z,96974.20
2017-10-25T22:14:32.717Z,96969.77
2017-10-25T22:17:00.597Z,96972.34
2017-10-25T22:19:28.166Z,96971.80
2017-10-25T22:21:55.736Z,96968.27
2017-10-25T22:24:23.649Z,96968.36
2017-10-25T22:26:51.240Z,96965.31
2017-10-25T22:29:18.907Z,96965.59
2017-10-25T22:31:46.442Z,96963.41
2017-10-25T22:34:13.973Z,96963.66
2017-10-25T22:36:41.529Z,96962.84
2017-10-25T22:39:09.271Z,96966.05
2017-10-25T22:41:37.282Z,96969.32
2017-10-25T22:44:05.031Z,96969.88
2017-10-25T22:46:32.560Z,96979.38
2017-10-25T22:49:00.101Z,96982.27
2017-10-25T22:51:27.707Z,96983.20
2017-10-25T22:53:55.246Z,96981.15
2017-10-25T22:56:22.804Z,96982.06
2017-10-25T22:58:50.335Z,96983.03
2017-10-25T23:01:17.867Z,96980.45
2017-10-25T23:03:45.442Z,96986.06
2017-10-25T23:06:12.971Z,96990.50
2017-10-25T23:08:40.559Z,96992.80
2017-10-25T23:11:08.244Z,96992.39
2017-10-25T23:13:35.831Z,96985.26
2017-10-25T23:16:03.373Z,96979.63
2017-10-25T23:18:30.964Z,96982.29
2017-10-25T23:20:58.505Z,96972.70
2017-10-25T23:23:26.037Z,96974.69
2017-10-25T23:25:53.603Z,96975.14
2017-10-25T23:28:21.145Z,96977.09
2017-10-25T23:30:48.693Z,96980.72
2017-10-25T23:33:16.264Z,96977.92
2017-10-25T23:35:43.801Z,96987.20
2017-10-25T23:38:11.365Z,96998.99
2017-10-25T23:40:38.946Z,96993.83
2017-10-25T23:43:06.532Z,96999.35
2017-10-25T23:45:34.110Z,96995.30
2017-10-25T23:48:01.673Z,96996.71
2017-10-25T23:50:29.207Z,96994.94
2017-10-25T23:52:56.732Z,96997.44
2017-10-25T23:55:24.336Z,96993.15
2017-10-25T23:57:51.866Z,96998.92
